Time;durP1;ratioP1;P1;durP2;ratioP2;P2;SDS_P1;SDS_P2;PMS_P1;PMS_P2;Temp;Humidity;BMP_temperature;BMP_pressure;BME280_temperature;BME280_humidity;BME280_pressure;Samples;Min_cycle;Max_cycle;Signal;HPM_P1;HPM_P2
2023/07/01 00:00:39;;;;;;;2.80;2.50;;;22.90;58.00;;;;;;5014149;28;20037;-74
2023/07/01 00:03:07;;;;;;;2.65;2.45;;;22.90;58.00;;;;;;5013828;28;20033;-74
2023/07/01 00:05:33;;;;;;;2.60;2.40;;;22.80;58.00;;;;;;5012610;28;20022;-74
2023/07/01 00:07:58;;;;;;;4.15;2.75;;;22.80;58.10;;;;;;5013918;28;20029;-74
2023/07/01 00:10:25;;;;;;;2.72;2.53;;;22.80;58.20;;;;;;5013959;28;20026;-74
2023/07/01 00:12:51;;;;;;;3.05;2.60;;;22.80;58.30;;;;;;5013837;28;20038;-74
2023/07/01 00:15:17;;;;;;;4.13;2.65;;;22.80;58.30;;;;;;5013764;28;20037;-75
2023/07/01 00:17:42;;;;;;;2.88;2.55;;;22.80;58.30;;;;;;5013880;28;20026;-73
2023/07/01 00:20:09;;;;;;;3.38;2.50;;;22.80;58.40;;;;;;5012511;28;20041;-74
2023/07/01 00:22:34;;;;;;;4.18;2.58;;;22.80;58.30;;;;;;5013103;28;20056;-74
2023/07/01 00:25:00;;;;;;;2.78;2.42;;;22.80;58.40;;;;;;5029315;28;20026;-75
2023/07/01 00:27:25;;;;;;;2.72;2.42;;;22.80;58.40;;;;;;5013621;28;20033;-74
2023/07/01 00:29:51;;;;;;;2.97;2.40;;;22.80;58.40;;;;;;5013344;28;20030;-74
2023/07/01 00:32:17;;;;;;;2.90;2.65;;;22.80;58.50;;;;;;5013434;28;20396;-74
2023/07/01 00:34:43;;;;;;;2.80;2.58;;;22.80;58.50;;;;;;5013634;28;20033;-74
2023/07/01 00:37:08;;;;;;;3.10;2.70;;;22.80;58.50;;;;;;5013854;28;20022;-74
2023/07/01 00:39:34;;;;;;;3.65;2.63;;;22.70;58.50;;;;;;5013661;28;20105;-74
2023/07/01 00:42:00;;;;;;;3.13;2.83;;;22.70;58.60;;;;;;5013665;28;20361;-75
2023/07/01 00:44:25;;;;;;;2.67;2.47;;;22.70;58.70;;;;;;5012120;28;20146;-74
2023/07/01 00:46:51;;;;;;;3.05;2.70;;;22.70;58.70;;;;;;5016870;28;20030;-74
2023/07/01 00:49:17;;;;;;;2.58;2.38;;;22.70;58.80;;;;;;5017287;28;20036;-75
2023/07/01 00:51:43;;;;;;;2.85;2.40;;;22.70;58.80;;;;;;5016334;28;20416;-74
2023/07/01 00:54:08;;;;;;;2.60;2.38;;;22.70;58.90;;;;;;5032881;28;20033;-74
2023/07/01 00:56:34;;;;;;;2.58;2.38;;;22.60;58.80;;;;;;5017219;28;20120;-75
2023/07/01 00:59:00;;;;;;;2.78;2.58;;;22.70;58.90;;;;;;5017300;28;20030;-74
2023/07/01 01:01:30;;;;;;;2.80;2.60;;;22.70;58.90;;;;;;5016924;28;20491;-74
2023/07/01 01:04:03;;;;;;;4.28;2.63;;;22.70;59.00;;;;;;5017386;28;20561;-74
2023/07/01 01:06:40;;;;;;;2.60;2.40;;;22.70;59.00;;;;;;5017315;28;20469;-74
2023/07/01 01:09:15;;;;;;;3.53;2.45;;;22.80;59.00;;;;;;5032300;28;20030;-75
2023/07/01 01:11:46;;;;;;;3.10;2.50;;;22.70;59.00;;;;;;5016810;28;20128;-75
2023/07/01 01:14:14;;;;;;;3.08;2.70;;;22.80;59.00;;;;;;5031949;28;20376;-75
2023/07/01 01:16:41;;;;;;;3.42;2.60;;;22.70;59.00;;;;;;5032111;28;20125;-74
2023/07/01 01:19:33;;;;;;;2.67;2.47;;;22.80;59.10;;;;;;5016931;28;20022;-74
2023/07/01 01:22:09;;;;;;;2.90;2.50;;;22.80;59.30;;;;;;5015578;28;20026;-75
2023/07/01 01:24:40;;;;;;;2.90;2.60;;;22.80;59.10;;;;;;5015210;28;20113;-74
2023/07/01 01:27:09;;;;;;;2.85;2.60;;;22.80;59.10;;;;;;5016750;28;20018;-74
2023/07/01 01:29:35;;;;;;;3.72;2.90;;;22.80;59.10;;;;;;5016831;28;20423;-74
2023/07/01 01:32:01;;;;;;;3.60;2.78;;;22.80;59.20;;;;;;5015421;28;20030;-74
2023/07/01 01:34:26;;;;;;;3.30;2.78;;;22.80;59.20;;;;;;5016547;28;20036;-75
2023/07/01 01:36:56;;;;;;;3.05;2.75;;;22.70;59.20;;;;;;5016399;28;20018;-74
2023/07/01 01:39:25;;;;;;;2.65;2.45;;;22.70;59.30;;;;;;5031708;28;20531;-74
2023/07/01 01:41:57;;;;;;;2.72;2.53;;;22.70;59.30;;;;;;5016375;28;20026;-74
2023/07/01 01:44:32;;;;;;;2.90;2.60;;;22.70;59.30;;;;;;5016227;28;20081;-74
2023/07/01 01:46:58;;;;;;;3.25;2.67;;;22.70;59.40;;;;;;5015344;28;20476;-75
2023/07/01 01:49:25;;;;;;;3.05;2.75;;;22.70;59.40;;;;;;5015988;28;20583;-74
2023/07/01 01:51:52;;;;;;;3.28;2.65;;;22.70;60.00;;;;;;5014877;28;20045;-74
2023/07/01 01:54:19;;;;;;;4.25;2.90;;;22.70;59.40;;;;;;5016157;28;20025;-73
2023/07/01 01:56:45;;;;;;;3.13;2.67;;;22.70;59.50;;;;;;5015208;28;20037;-73
2023/07/01 01:59:11;;;;;;;3.50;3.20;;;22.70;59.50;;;;;;5016127;28;20026;-74
2023/07/01 02:01:37;;;;;;;3.17;2.88;;;22.70;59.60;;;;;;5016068;28;20042;-76
2023/07/01 02:04:03;;;;;;;3.35;2.72;;;22.60;59.60;;;;;;5015951;28;20022;-75
2023/07/01 02:06:28;;;;;;;2.70;2.50;;;22.60;59.70;;;;;;5016133;28;20034;-75
2023/07/01 02:08:54;;;;;;;3.33;2.90;;;22.60;59.80;;;;;;5016205;28;20030;-74
2023/07/01 02:11:19;;;;;;;3.72;2.90;;;22.60;59.80;;;;;;5015829;28;20037;-75
2023/07/01 02:13:45;;;;;;;3.88;2.80;;;22.60;59.80;;;;;;5015594;28;20092;-75
2023/07/01 02:16:11;;;;;;;4.32;2.88;;;22.60;59.90;;;;;;5015723;28;20317;-76
2023/07/01 02:18:36;;;;;;;3.35;3.05;;;22.60;59.80;;;;;;5015461;28;20034;-75
2023/07/01 02:21:04;;;;;;;4.03;2.88;;;22.60;59.90;;;;;;5030922;28;20057;-75
2023/07/01 02:23:30;;;;;;;2.88;2.60;;;22.60;59.80;;;;;;5015595;28;20026;-75
2023/07/01 02:25:55;;;;;;;3.17;2.83;;;22.60;59.80;;;;;;5015421;28;20117;-75
2023/07/01 02:28:21;;;;;;;3.17;2.88;;;22.60;59.80;;;;;;5015523;28;20030;-75
2023/07/01 02:30:47;;;;;;;3.10;2.80;;;22.70;59.90;;;;;;5013998;28;20561;-75
2023/07/01 02:33:12;;;;;;;3.38;3.08;;;22.70;59.90;;;;;;5015398;28;20393;-75
2023/07/01 02:35:38;;;;;;;3.65;2.95;;;22.70;59.90;;;;;;5030453;28;20460;-76
2023/07/01 02:38:04;;;;;;;3.20;2.90;;;22.70;59.90;;;;;;5015400;28;20025;-75
2023/07/01 02:40:29;;;;;;;3.10;2.80;;;22.70;59.90;;;;;;5015141;28;20026;-75
2023/07/01 02:42:55;;;;;;;3.30;3.00;;;22.70;59.90;;;;;;5015205;28;20034;-75
2023/07/01 02:45:20;;;;;;;3.28;2.97;;;22.70;59.90;;;;;;5015414;28;20535;-76
2023/07/01 02:47:46;;;;;;;3.50;3.03;;;22.80;59.90;;;;;;5015058;28;20030;-75
2023/07/01 02:50:12;;;;;;;3.30;3.00;;;22.70;60.50;;;;;;5014800;28;20499;-75
2023/07/01 02:52:37;;;;;;;3.22;2.92;;;22.70;59.90;;;;;;5014992;28;20026;-75
2023/07/01 02:55:03;;;;;;;3.17;2.88;;;22.80;59.90;;;;;;5015086;28;20026;-75
2023/07/01 02:57:29;;;;;;;3.15;2.75;;;22.80;59.90;;;;;;5014916;28;20034;-74
2023/07/01 02:59:56;;;;;;;4.53;2.88;;;22.80;59.90;;;;;;5014636;28;20037;-74
2023/07/01 03:02:22;;;;;;;3.40;2.83;;;22.80;59.90;;;;;;5014835;28;20018;-74
2023/07/01 03:04:47;;;;;;;3.28;2.97;;;22.80;59.90;;;;;;5014861;28;20427;-74
2023/07/01 03:07:13;;;;;;;3.28;2.97;;;22.80;59.90;;;;;;5014957;28;20452;-74
2023/07/01 03:09:39;;;;;;;3.45;3.08;;;22.80;59.90;;;;;;5014581;28;20026;-75
2023/07/01 03:12:05;;;;;;;3.65;3.03;;;22.80;59.90;;;;;;5014405;28;20087;-74
2023/07/01 03:14:30;;;;;;;3.22;2.92;;;22.90;59.90;;;;;;5014910;28;20033;-75
2023/07/01 03:16:56;;;;;;;3.45;3.05;;;22.90;59.90;;;;;;5014311;28;20045;-74
2023/07/01 03:19:23;;;;;;;3.22;2.92;;;22.90;59.80;;;;;;5014627;28;20034;-74
2023/07/01 03:21:49;;;;;;;3.20;2.90;;;22.90;59.80;;;;;;5013284;28;20026;-74
2023/07/01 03:24:14;;;;;;;3.65;3.17;;;23.00;59.80;;;;;;5014760;28;20033;-74
2023/07/01 03:26:40;;;;;;;3.42;3.03;;;23.00;59.80;;;;;;5014538;28;20022;-74
2023/07/01 03:29:06;;;;;;;3.92;2.90;;;23.00;59.80;;;;;;5029443;28;20029;-74
2023/07/01 03:31:32;;;;;;;3.65;3.28;;;23.00;59.90;;;;;;5014268;28;20376;-74
2023/07/01 03:33:58;;;;;;;3.28;2.95;;;23.00;59.80;;;;;;5014288;28;20026;-74
2023/07/01 03:36:24;;;;;;;3.88;3.47;;;23.00;59.90;;;;;;5014300;28;20092;-74
2023/07/01 03:38:50;;;;;;;3.53;3.20;;;23.00;59.90;;;;;;5014065;28;20025;-74
2023/07/01 03:41:16;;;;;;;3.42;3.13;;;23.00;60.00;;;;;;5014148;28;20022;-74
2023/07/01 03:43:42;;;;;;;3.35;2.92;;;23.00;60.00;;;;;;5014379;28;20053;-74
2023/07/01 03:46:07;;;;;;;3.42;3.10;;;23.10;60.00;;;;;;5012615;28;20061;-75
2023/07/01 03:48:34;;;;;;;3.28;2.90;;;23.10;60.00;;;;;;5014193;28;20156;-74
2023/07/01 03:50:59;;;;;;;3.30;2.90;;;23.10;60.00;;;;;;5013955;28;20022;-74
2023/07/01 03:53:25;;;;;;;3.53;3.17;;;23.10;59.90;;;;;;5014123;28;20350;-74
2023/07/01 03:55:51;;;;;;;3.20;2.90;;;23.10;59.90;;;;;;5013961;28;20029;-74
2023/07/01 03:58:21;;;;;;;3.22;2.92;;;23.20;59.90;;;;;;5014021;28;20026;-74
2023/07/01 04:00:51;;;;;;;3.80;3.40;;;23.20;59.90;;;;;;5012479;28;20547;-74
2023/07/01 04:03:16;;;;;;;3.58;3.22;;;23.20;59.90;;;;;;5013954;28;20490;-74
2023/07/01 04:05:42;;;;;;;3.35;2.95;;;23.30;59.90;;;;;;5013800;28;20053;-74
2023/07/01 04:08:07;;;;;;;3.97;3.20;;;23.30;59.90;;;;;;5013936;28;20120;-74
2023/07/01 04:10:33;;;;;;;3.30;3.00;;;23.30;59.90;;;;;;5013558;28;20026;-74
2023/07/01 04:13:00;;;;;;;3.20;2.90;;;23.30;59.90;;;;;;5013812;28;20025;-74
2023/07/01 04:15:27;;;;;;;3.45;3.15;;;23.30;59.90;;;;;;5013502;28;20018;-74
2023/07/01 04:17:54;;;;;;;3.45;3.15;;;23.30;59.90;;;;;;5009398;28;20031;-74
2023/07/01 04:20:20;;;;;;;3.35;3.00;;;23.40;59.90;;;;;;4995053;28;20050;-74
2023/07/01 04:22:47;;;;;;;3.35;3.05;;;23.40;59.90;;;;;;5013237;28;20062;-74
2023/07/01 04:25:13;;;;;;;3.70;3.30;;;23.40;59.90;;;;;;5013128;28;20088;-74
2023/07/01 04:27:42;;;;;;;3.58;3.15;;;23.40;59.90;;;;;;4997817;28;20057;-75
2023/07/01 04:30:08;;;;;;;3.17;2.85;;;23.50;59.90;;;;;;4997742;28;20030;-74
2023/07/01 04:32:34;;;;;;;4.18;2.83;;;23.50;59.80;;;;;;5013721;28;20125;-75
2023/07/01 04:35:00;;;;;;;3.45;3.15;;;23.50;59.80;;;;;;4997773;28;20080;-75
2023/07/01 04:37:26;;;;;;;4.00;3.28;;;23.50;59.80;;;;;;5012992;28;20033;-75
2023/07/01 04:39:51;;;;;;;3.60;3.30;;;23.60;59.90;;;;;;4997771;28;20026;-75
2023/07/01 04:42:18;;;;;;;3.47;3.00;;;23.60;59.80;;;;;;4997632;28;20547;-75
2023/07/01 04:44:43;;;;;;;3.30;2.97;;;23.60;59.70;;;;;;5012690;28;20484;-75
2023/07/01 04:47:09;;;;;;;3.55;3.15;;;23.60;59.70;;;;;;5012774;28;20030;-74
2023/07/01 04:49:35;;;;;;;3.30;3.00;;;23.60;59.70;;;;;;5012693;28;20037;-74
2023/07/01 04:52:00;;;;;;;3.40;2.97;;;23.60;59.70;;;;;;4996212;28;20038;-74
2023/07/01 04:54:26;;;;;;;3.88;3.17;;;23.70;59.70;;;;;;5012553;28;20026;-75
2023/07/01 04:56:51;;;;;;;4.38;3.20;;;23.60;59.60;;;;;;4997288;28;20027;-74
2023/07/01 04:59:17;;;;;;;3.40;3.10;;;23.70;59.70;;;;;;4997787;28;20460;-74
2023/07/01 05:01:43;;;;;;;3.45;3.15;;;23.70;59.70;;;;;;5012949;28;20034;-74
2023/07/01 05:04:08;;;;;;;3.97;3.50;;;23.70;59.70;;;;;;4997368;28;20027;-74
2023/07/01 05:06:35;;;;;;;4.35;3.33;;;23.70;59.60;;;;;;4997131;28;20034;-74
2023/07/01 05:09:02;;;;;;;3.30;3.00;;;23.80;59.70;;;;;;4997354;28;20057;-74
2023/07/01 05:11:28;;;;;;;3.42;3.13;;;23.80;59.70;;;;;;4997076;28;20480;-75
2023/07/01 05:13:54;;;;;;;3.33;3.03;;;23.80;59.70;;;;;;5011914;28;20031;-75
2023/07/01 05:16:20;;;;;;;3.65;3.35;;;23.80;59.70;;;;;;4997126;28;20044;-75
2023/07/01 05:18:45;;;;;;;4.68;3.22;;;23.80;59.70;;;;;;4997004;28;20545;-75
2023/07/01 05:21:11;;;;;;;4.13;3.38;;;23.80;59.70;;;;;;4997133;28;20105;-74
2023/07/01 05:23:36;;;;;;;3.85;3.20;;;23.80;59.70;;;;;;4996901;28;20089;-75
2023/07/01 05:26:02;;;;;;;4.43;3.15;;;23.90;59.80;;;;;;5011977;28;20465;-74
2023/07/01 05:28:28;;;;;;;3.50;3.20;;;23.80;59.70;;;;;;4997190;28;20033;-74
2023/07/01 05:30:53;;;;;;;6.97;3.10;;;23.90;59.70;;;;;;4997069;28;20027;-74
2023/07/01 05:33:19;;;;;;;4.38;3.33;;;23.90;59.60;;;;;;4995357;28;20053;-74
2023/07/01 05:35:45;;;;;;;3.60;3.30;;;23.90;59.60;;;;;;4996708;28;20388;-74
2023/07/01 05:38:11;;;;;;;4.63;3.30;;;23.90;59.50;;;;;;4997181;28;20046;-74
2023/07/01 05:40:38;;;;;;;3.33;3.03;;;24.00;59.50;;;;;;4996750;28;20033;-74
2023/07/01 05:43:04;;;;;;;3.92;3.40;;;24.00;59.50;;;;;;4996994;28;20346;-74
2023/07/01 05:45:30;;;;;;;3.58;3.28;;;24.00;59.50;;;;;;4996540;28;20149;-74
2023/07/01 05:47:55;;;;;;;4.88;3.20;;;24.00;59.50;;;;;;4996412;28;20532;-75
2023/07/01 05:50:21;;;;;;;3.92;3.53;;;24.00;59.50;;;;;;4996522;28;20461;-75
2023/07/01 05:52:47;;;;;;;3.97;3.50;;;24.10;59.50;;;;;;4996660;28;20037;-74
2023/07/01 05:55:12;;;;;;;3.70;3.40;;;24.10;59.40;;;;;;4996257;28;20045;-73
2023/07/01 05:57:38;;;;;;;3.78;3.30;;;24.10;59.40;;;;;;4996649;28;20469;-75
2023/07/01 06:00:05;;;;;;;3.58;3.20;;;24.20;59.40;;;;;;5011430;28;20414;-76
2023/07/01 06:02:31;;;;;;;3.80;3.40;;;24.20;59.40;;;;;;4996066;28;20030;-74
2023/07/01 06:04:56;;;;;;;4.35;3.28;;;24.20;59.40;;;;;;4995208;28;20034;-75
2023/07/01 06:07:22;;;;;;;4.38;3.80;;;24.20;59.30;;;;;;4995963;28;20022;-74
2023/07/01 06:09:49;;;;;;;3.75;3.40;;;24.20;59.20;;;;;;4996202;28;20105;-75
2023/07/01 06:12:15;;;;;;;3.45;3.15;;;24.30;59.30;;;;;;4995895;28;20034;-75
2023/07/01 06:14:41;;;;;;;3.78;3.40;;;24.30;59.20;;;;;;4996132;28;20035;-74
2023/07/01 06:17:06;;;;;;;3.88;3.53;;;24.30;59.20;;;;;;5011130;28;20050;-75
2023/07/01 06:19:32;;;;;;;3.80;3.40;;;24.30;59.10;;;;;;4996020;28;20054;-75
2023/07/01 06:21:58;;;;;;;3.60;3.30;;;24.40;59.10;;;;;;4995949;28;20072;-76
2023/07/01 06:24:24;;;;;;;4.00;3.40;;;24.40;59.00;;;;;;4995928;28;20114;-74
2023/07/01 06:26:49;;;;;;;4.25;3.28;;;24.40;59.00;;;;;;4995589;28;20026;-75
2023/07/01 06:29:15;;;;;;;3.85;3.40;;;24.40;58.90;;;;;;4995969;28;20504;-75
2023/07/01 06:31:41;;;;;;;3.70;3.40;;;24.40;58.90;;;;;;4995638;28;20053;-74
2023/07/01 06:34:17;;;;;;;3.60;3.30;;;24.50;58.90;;;;;;4995493;28;20426;-75
2023/07/01 06:36:45;;;;;;;3.40;3.10;;;24.50;58.80;;;;;;4994623;28;20027;-75
2023/07/01 06:39:12;;;;;;;3.30;3.00;;;24.50;58.80;;;;;;5010321;28;20042;-74
2023/07/01 06:41:38;;;;;;;3.78;3.30;;;24.50;58.70;;;;;;4995653;28;20026;-76
2023/07/01 06:44:04;;;;;;;3.90;3.30;;;24.60;58.70;;;;;;5010208;28;20038;-74
2023/07/01 06:46:29;;;;;;;3.60;3.30;;;24.60;58.70;;;;;;4995459;28;20030;-74
2023/07/01 06:48:55;;;;;;;3.30;3.00;;;24.60;58.60;;;;;;4995210;28;20096;-74
2023/07/01 06:51:21;;;;;;;3.38;3.03;;;24.60;58.60;;;;;;4994129;28;20034;-74
2023/07/01 06:53:47;;;;;;;4.70;3.33;;;24.70;58.60;;;;;;4995157;28;20033;-74
2023/07/01 06:56:13;;;;;;;3.50;3.17;;;24.70;58.50;;;;;;4995509;28;20537;-75
2023/07/01 06:58:40;;;;;;;3.60;3.30;;;24.70;58.50;;;;;;4995210;28;20026;-75
2023/07/01 07:01:06;;;;;;;3.50;3.20;;;24.70;58.50;;;;;;5010029;28;20080;-75
2023/07/01 07:03:33;;;;;;;4.38;3.22;;;24.70;58.40;;;;;;5009887;28;20033;-75
2023/07/01 07:05:59;;;;;;;3.45;3.13;;;24.70;58.40;;;;;;4994957;28;20098;-75
2023/07/01 07:08:25;;;;;;;3.42;3.13;;;24.70;58.30;;;;;;4994642;28;20038;-75
2023/07/01 07:10:50;;;;;;;4.03;3.30;;;24.70;58.30;;;;;;5010064;28;20113;-75
2023/07/01 07:13:17;;;;;;;3.40;3.10;;;24.80;58.30;;;;;;4994905;28;20042;-75
2023/07/01 07:15:43;;;;;;;3.47;3.08;;;24.80;58.30;;;;;;4994737;28;20037;-76
2023/07/01 07:18:10;;;;;;;3.42;3.10;;;24.80;58.20;;;;;;4994792;28;20022;-74
2023/07/01 07:20:37;;;;;;;3.35;3.05;;;24.80;58.20;;;;;;4994731;28;20030;-75
2023/07/01 07:23:05;;;;;;;4.55;3.00;;;24.90;58.20;;;;;;5009703;28;20026;-74
2023/07/01 07:25:35;;;;;;;3.35;3.05;;;24.90;58.10;;;;;;4994557;28;20161;-75
2023/07/01 07:28:02;;;;;;;4.18;3.17;;;24.90;58.10;;;;;;4994575;28;20106;-75
2023/07/01 07:30:27;;;;;;;4.95;2.90;;;24.90;58.00;;;;;;4994662;28;20425;-74
2023/07/01 07:32:53;;;;;;;3.70;3.20;;;25.00;58.00;;;;;;4994470;28;20112;-74
2023/07/01 07:35:19;;;;;;;3.17;2.90;;;24.90;58.00;;;;;;4994553;28;20030;-75
2023/07/01 07:37:45;;;;;;;3.40;3.10;;;25.00;57.90;;;;;;5009720;28;20026;-76
2023/07/01 07:40:11;;;;;;;3.47;3.17;;;25.00;57.90;;;;;;5009016;28;20453;-75
2023/07/01 07:42:37;;;;;;;3.75;3.10;;;25.00;57.90;;;;;;4994066;28;20059;-74
2023/07/01 07:45:04;;;;;;;4.03;3.20;;;25.00;57.80;;;;;;4994233;28;20085;-74
2023/07/01 07:47:29;;;;;;;3.30;3.00;;;25.10;57.80;;;;;;4994397;28;20038;-75
2023/07/01 07:49:55;;;;;;;3.50;3.05;;;25.10;57.70;;;;;;5008999;28;20108;-75
2023/07/01 07:52:21;;;;;;;3.25;2.92;;;25.10;58.30;;;;;;4993590;28;20420;-75
2023/07/01 07:54:47;;;;;;;3.17;2.88;;;25.10;57.60;;;;;;4992258;28;20118;-74
2023/07/01 07:57:13;;;;;;;2.85;2.65;;;25.10;57.50;;;;;;4993882;28;20106;-75
2023/07/01 07:59:43;;;;;;;3.28;2.97;;;25.10;57.50;;;;;;4992818;28;20385;-75
2023/07/01 08:02:09;;;;;;;3.40;3.10;;;25.10;57.40;;;;;;4994460;28;20034;-74
2023/07/01 08:04:35;;;;;;;5.05;3.08;;;25.20;57.40;;;;;;4993350;28;20415;-74
2023/07/01 08:07:01;;;;;;;3.38;3.03;;;25.20;57.40;;;;;;4993702;28;20030;-74
2023/07/01 08:09:28;;;;;;;3.50;3.17;;;25.20;57.30;;;;;;4993495;28;20049;-74
2023/07/01 08:11:54;;;;;;;3.35;3.03;;;25.30;57.30;;;;;;5008279;28;20027;-73
2023/07/01 08:14:20;;;;;;;3.20;2.90;;;25.20;57.20;;;;;;4992235;28;20468;-74
2023/07/01 08:16:45;;;;;;;3.45;3.08;;;25.30;57.10;;;;;;5008743;28;20034;-75
2023/07/01 08:19:11;;;;;;;3.30;3.00;;;25.30;57.00;;;;;;4993402;28;20140;-74
2023/07/01 08:21:37;;;;;;;3.08;2.78;;;25.40;56.90;;;;;;4993928;28;20485;-75
2023/07/01 08:24:07;;;;;;;3.50;3.20;;;25.50;56.80;;;;;;4993660;28;20046;-75
2023/07/01 08:26:32;;;;;;;3.72;3.10;;;25.50;56.70;;;;;;4993450;28;20089;-75
2023/07/01 08:28:58;;;;;;;3.22;2.92;;;25.50;56.60;;;;;;4993380;28;20027;-74
2023/07/01 08:31:24;;;;;;;3.53;3.05;;;25.50;56.50;;;;;;4992972;28;20465;-75
2023/07/01 08:33:49;;;;;;;4.32;3.00;;;25.50;56.40;;;;;;4993388;28;20121;-74
2023/07/01 08:36:15;;;;;;;3.25;2.95;;;25.60;56.40;;;;;;4993456;28;20097;-74
2023/07/01 08:38:41;;;;;;;3.30;3.00;;;25.60;56.30;;;;;;4993165;28;20027;-74
2023/07/01 08:41:11;;;;;;;3.03;2.75;;;25.60;56.20;;;;;;4992780;28;20094;-74
2023/07/01 08:43:39;;;;;;;3.30;3.00;;;25.60;56.20;;;;;;4992705;28;20121;-74
2023/07/01 08:46:05;;;;;;;3.20;2.90;;;25.70;56.00;;;;;;4992893;28;20050;-77
2023/07/01 08:48:35;;;;;;;3.10;2.80;;;25.70;55.80;;;;;;4992967;28;20078;-74
2023/07/01 08:51:19;;;;;;;3.25;2.95;;;25.80;55.80;;;;;;5008185;28;20117;-75
2023/07/01 08:53:45;;;;;;;3.25;2.75;;;25.90;55.60;;;;;;4993240;28;20447;-74
2023/07/01 08:56:13;;;;;;;3.30;3.00;;;25.90;55.60;;;;;;4992570;28;20031;-74
2023/07/01 08:58:39;;;;;;;3.15;2.85;;;26.00;55.50;;;;;;5008068;28;20027;-75
2023/07/01 09:01:06;;;;;;;2.80;2.60;;;26.00;55.20;;;;;;5007911;28;20030;-74
2023/07/01 09:03:35;;;;;;;3.03;2.67;;;26.10;55.20;;;;;;4992366;28;20041;-74
2023/07/01 09:06:02;;;;;;;2.95;2.75;;;26.20;55.10;;;;;;4992533;28;20054;-74
2023/07/01 09:08:28;;;;;;;3.15;2.85;;;26.20;55.00;;;;;;4994662;28;20050;-75
2023/07/01 09:10:54;;;;;;;2.90;2.60;;;26.30;54.90;;;;;;4995986;28;20089;-75
2023/07/01 09:13:19;;;;;;;3.30;2.80;;;26.30;54.90;;;;;;4995729;28;20056;-74
2023/07/01 09:15:48;;;;;;;2.78;2.58;;;26.30;54.80;;;;;;4996099;28;20037;-74
2023/07/01 09:18:35;;;;;;;2.88;2.58;;;26.30;54.70;;;;;;4995987;28;20109;-74
2023/07/01 09:21:01;;;;;;;2.90;2.60;;;26.40;54.20;;;;;;4995760;28;20045;-74
2023/07/01 09:23:31;;;;;;;3.13;2.83;;;26.40;54.50;;;;;;4995607;28;20027;-74
2023/07/01 09:26:17;;;;;;;3.08;2.80;;;26.40;54.40;;;;;;5010517;28;20445;-74
2023/07/01 09:28:49;;;;;;;2.95;2.67;;;26.50;54.40;;;;;;5011555;28;20022;-75
2023/07/01 09:31:16;;;;;;;2.63;2.42;;;26.50;54.40;;;;;;4996157;28;20026;-75
2023/07/01 09:34:01;;;;;;;4.18;2.75;;;26.60;54.40;;;;;;4996141;28;20042;-74
2023/07/01 09:36:29;;;;;;;2.88;2.67;;;26.60;54.20;;;;;;5011670;28;20023;-74
2023/07/01 09:38:55;;;;;;;2.92;2.63;;;26.70;54.10;;;;;;5011017;28;20039;-74
2023/07/01 09:41:24;;;;;;;2.60;2.40;;;26.70;54.10;;;;;;4995621;28;20418;-75
2023/07/01 09:43:51;;;;;;;3.45;2.70;;;26.70;53.90;;;;;;5010100;28;20436;-75
2023/07/01 09:46:17;;;;;;;3.50;2.67;;;26.80;53.90;;;;;;5010556;28;20061;-74
2023/07/01 09:48:51;;;;;;;2.65;2.45;;;26.80;53.80;;;;;;4995321;28;20117;-75
2023/07/01 09:51:17;;;;;;;2.83;2.60;;;26.80;53.50;;;;;;4994105;28;20539;-75
2023/07/01 09:53:43;;;;;;;2.65;2.45;;;26.90;53.40;;;;;;4996329;28;20138;-75
2023/07/01 09:56:09;;;;;;;3.17;2.70;;;26.90;53.40;;;;;;4996098;28;20105;-75
2023/07/01 09:58:35;;;;;;;2.70;2.50;;;26.90;53.30;;;;;;4995541;28;20089;-75
2023/07/01 10:01:01;;;;;;;2.80;2.60;;;26.90;53.30;;;;;;4995301;28;20039;-74
2023/07/01 10:03:27;;;;;;;2.35;2.15;;;26.90;53.20;;;;;;4995046;28;20026;-75
2023/07/01 10:05:54;;;;;;;2.50;2.30;;;27.00;53.10;;;;;;5010244;28;20057;-75
2023/07/01 10:08:21;;;;;;;2.55;2.35;;;27.00;53.20;;;;;;4995308;28;20417;-75
2023/07/01 10:11:19;;;;;;;2.60;2.40;;;27.00;53.20;;;;;;5010582;28;20081;-74
2023/07/01 10:13:51;;;;;;;2.85;2.60;;;27.10;52.70;;;;;;4995604;28;20034;-74
2023/07/01 10:16:18;;;;;;;2.47;2.28;;;27.10;52.90;;;;;;4995068;28;20034;-75
2023/07/01 10:18:44;;;;;;;3.53;2.50;;;27.10;52.80;;;;;;4994391;28;20022;-74
2023/07/01 10:21:28;;;;;;;2.33;2.10;;;27.20;52.80;;;;;;4993931;28;20088;-73
2023/07/01 10:23:56;;;;;;;2.50;2.30;;;27.10;52.40;;;;;;4994485;28;20032;-74
2023/07/01 10:26:46;;;;;;;2.45;2.22;;;27.20;52.70;;;;;;5009234;28;20037;-73
2023/07/01 10:29:28;;;;;;;2.25;2.15;;;27.20;52.10;;;;;;4994413;28;20125;-75
2023/07/01 10:32:08;;;;;;;2.45;2.25;;;27.30;52.30;;;;;;4995025;28;20053;-75
2023/07/01 10:34:52;;;;;;;2.40;2.20;;;27.30;52.30;;;;;;5010104;28;20428;-75
2023/07/01 10:37:22;;;;;;;2.20;2.00;;;27.30;52.10;;;;;;4994943;28;20101;-75
2023/07/01 10:39:48;;;;;;;2.33;2.17;;;27.30;52.20;;;;;;4994818;28;20117;-74
2023/07/01 10:42:31;;;;;;;2.55;2.35;;;27.30;52.10;;;;;;4994745;28;20110;-74
2023/07/01 10:45:12;;;;;;;2.50;2.30;;;27.30;51.70;;;;;;4995197;28;20085;-76
2023/07/01 10:47:43;;;;;;;2.30;2.10;;;27.30;52.10;;;;;;4995295;28;20477;-75
2023/07/01 10:50:13;;;;;;;2.75;2.30;;;27.20;51.80;;;;;;4994525;28;20354;-75
2023/07/01 10:52:58;;;;;;;2.22;2.03;;;27.20;51.80;;;;;;4994473;28;20034;-75
2023/07/01 10:55:36;;;;;;;2.28;2.08;;;27.20;51.50;;;;;;4994202;28;20049;-75
2023/07/01 10:58:21;;;;;;;2.30;2.10;;;27.30;51.40;;;;;;4994309;28;20026;-75
2023/07/01 11:00:57;;;;;;;2.30;2.00;;;27.30;51.40;;;;;;4994222;28;20469;-75
2023/07/01 11:03:35;;;;;;;2.38;2.17;;;27.30;51.50;;;;;;4994590;28;20161;-75
2023/07/01 11:06:11;;;;;;;1.95;1.85;;;27.30;51.30;;;;;;4994052;28;20026;-75
2023/07/01 11:09:03;;;;;;;2.47;2.22;;;27.40;51.40;;;;;;5009226;28;20038;-74
2023/07/01 11:11:30;;;;;;;2.13;1.98;;;27.50;50.90;;;;;;4993581;28;20046;-75
2023/07/01 11:13:59;;;;;;;2.30;2.10;;;27.50;51.10;;;;;;5009614;28;20038;-75
2023/07/01 11:16:26;;;;;;;2.67;2.10;;;27.60;51.00;;;;;;4994387;28;20026;-75
2023/07/01 11:18:53;;;;;;;2.65;1.98;;;27.60;50.90;;;;;;5009312;28;20026;-75
2023/07/01 11:21:25;;;;;;;2.15;2.00;;;27.60;50.80;;;;;;4993381;28;20026;-74
2023/07/01 11:24:11;;;;;;;1.90;1.80;;;27.60;50.80;;;;;;4993647;28;20053;-75
2023/07/01 11:26:40;;;;;;;1.88;1.77;;;27.60;50.40;;;;;;5008063;28;20030;-74
2023/07/01 11:29:16;;;;;;;1.85;1.75;;;27.60;50.70;;;;;;4993503;28;20085;-74
2023/07/01 11:31:42;;;;;;;1.95;1.80;;;27.60;50.60;;;;;;4993431;28;20058;-75
2023/07/01 11:34:10;;;;;;;1.88;1.70;;;27.60;50.70;;;;;;5008402;28;20484;-74
2023/07/01 11:36:45;;;;;;;1.77;1.67;;;27.60;50.60;;;;;;4993339;28;20524;-75
2023/07/01 11:39:16;;;;;;;2.00;1.85;;;27.60;50.60;;;;;;4993447;28;20026;-74
2023/07/01 11:41:43;;;;;;;1.88;1.77;;;27.60;50.60;;;;;;5009599;28;20034;-74
2023/07/01 11:44:12;;;;;;;2.05;1.95;;;27.50;50.50;;;;;;5009315;28;20046;-74
2023/07/01 11:46:47;;;;;;;2.00;1.80;;;27.50;50.40;;;;;;4994184;28;20034;-75
2023/07/01 11:49:22;;;;;;;2.30;2.10;;;27.50;50.30;;;;;;4993774;28;20100;-74
2023/07/01 11:51:59;;;;;;;1.83;1.73;;;27.50;50.50;;;;;;4993457;28;20030;-75
2023/07/01 11:54:41;;;;;;;2.30;2.10;;;27.50;50.50;;;;;;5009097;28;20053;-75
2023/07/01 11:57:14;;;;;;;2.65;2.15;;;27.50;50.40;;;;;;4993806;28;20034;-75
2023/07/01 11:59:46;;;;;;;2.20;2.00;;;27.50;50.60;;;;;;5008773;28;20030;-75
2023/07/01 12:02:12;;;;;;;2.20;2.00;;;27.40;50.50;;;;;;5008457;28;20096;-75
2023/07/01 12:04:38;;;;;;;1.95;1.85;;;27.40;50.50;;;;;;5008524;28;20441;-74
2023/07/01 12:07:18;;;;;;;2.30;2.10;;;27.40;50.50;;;;;;4993366;28;20425;-75
2023/07/01 12:09:45;;;;;;;2.05;1.90;;;27.50;51.10;;;;;;5008503;28;20073;-75
2023/07/01 12:12:34;;;;;;;2.03;1.83;;;27.50;50.50;;;;;;4992943;28;20038;-75
2023/07/01 12:15:04;;;;;;;2.20;2.00;;;27.60;50.50;;;;;;4993532;28;20033;-75
2023/07/01 12:17:30;;;;;;;1.90;1.80;;;27.60;50.40;;;;;;4993236;28;20030;-75
2023/07/01 12:19:58;;;;;;;1.77;1.67;;;27.70;50.40;;;;;;5008820;28;20118;-75
2023/07/01 12:22:24;;;;;;;2.05;1.85;;;27.80;50.40;;;;;;4993442;28;20385;-75
2023/07/01 12:24:57;;;;;;;2.63;2.10;;;27.90;50.30;;;;;;4993435;28;20354;-75
2023/07/01 12:27:23;;;;;;;4.17;2.13;;;27.90;50.10;;;;;;4993762;28;20345;-75
2023/07/01 12:29:49;;;;;;;2.00;1.90;;;28.00;50.10;;;;;;5008541;28;20073;-75
2023/07/01 12:32:15;;;;;;;2.00;1.90;;;28.00;50.00;;;;;;5008186;28;20034;-75
2023/07/01 12:34:41;;;;;;;2.03;1.83;;;28.10;49.90;;;;;;4993238;28;20084;-75
2023/07/01 12:37:07;;;;;;;1.88;1.77;;;28.20;49.90;;;;;;5008580;28;20077;-75
2023/07/01 12:39:33;;;;;;;1.92;1.83;;;28.30;49.80;;;;;;4993119;28;20034;-75
2023/07/01 12:41:59;;;;;;;2.03;1.90;;;28.40;49.70;;;;;;4994535;28;20042;-77
2023/07/01 12:44:25;;;;;;;2.20;1.98;;;28.50;49.60;;;;;;4996677;28;20109;-76
2023/07/01 12:46:51;;;;;;;2.08;1.88;;;28.60;49.50;;;;;;4996651;28;20418;-75
2023/07/01 12:49:17;;;;;;;1.70;1.60;;;28.60;49.40;;;;;;4996653;28;20350;-75
2023/07/01 12:51:44;;;;;;;1.70;1.60;;;28.60;49.30;;;;;;5011656;28;20361;-75